createdAt,value
2023-05-05T00:00:42.665Z,13.18
2023-05-05T00:03:27.138Z,13.07
2023-05-05T00:06:10.806Z,13.18
2023-05-05T00:08:55.272Z,13.00
2023-05-05T00:11:38.732Z,13.04
2023-05-05T00:14:22.203Z,13.19
2023-05-05T00:17:05.812Z,13.16
2023-05-05T00:19:49.649Z,13.09
2023-05-05T00:22:33.173Z,13.01
2023-05-05T00:25:16.671Z,13.09
2023-05-05T00:28:00.475Z,12.69
2023-05-05T00:30:44.108Z,12.92
2023-05-05T00:33:27.901Z,12.87
2023-05-05T00:36:11.554Z,13.16
2023-05-05T00:38:55.059Z,13.06
2023-05-05T00:41:38.660Z,12.99
2023-05-05T00:44:41.834Z,12.58
2023-05-05T00:47:25.715Z,12.64
2023-05-05T00:50:10.985Z,12.67
2023-05-05T00:53:00.468Z,12.53
2023-05-05T00:55:44.026Z,12.52
2023-05-05T00:58:30.528Z,12.31
2023-05-05T01:01:15.653Z,12.16
2023-05-05T01:03:59.370Z,12.31
2023-05-05T01:06:59.678Z,12.21
2023-05-05T01:10:24.948Z,12.37
2023-05-05T01:13:40.876Z,12.33
2023-05-05T01:16:29.878Z,12.08
2023-05-05T01:20:04.598Z,11.94
2023-05-05T01:22:57.763Z,11.93
2023-05-05T01:26:22.197Z,12.17
2023-05-05T01:29:38.575Z,12.28
2023-05-05T01:32:34.064Z,12.25
2023-05-05T01:35:28.738Z,12.19
2023-05-05T01:38:40.698Z,12.20
2023-05-05T01:41:50.436Z,12.31
2023-05-05T01:44:38.276Z,12.00
2023-05-05T01:47:23.270Z,12.07
2023-05-05T01:50:09.335Z,12.17
2023-05-05T01:52:56.662Z,12.05
2023-05-05T01:55:42.070Z,12.21
2023-05-05T01:58:30.096Z,11.95
2023-05-05T02:01:15.589Z,12.14
2023-05-05T02:04:02.147Z,12.09
2023-05-05T02:06:51.705Z,11.93
2023-05-05T02:09:37.186Z,11.91
2023-05-05T02:12:22.853Z,11.30
2023-05-05T02:15:08.272Z,11.81
2023-05-05T02:17:53.163Z,11.65
2023-05-05T02:20:39.899Z,10.99
2023-05-05T02:23:23.679Z,11.51
2023-05-05T02:26:11.632Z,11.54
2023-05-05T02:29:07.586Z,11.47
2023-05-05T02:31:58.587Z,11.50
2023-05-05T02:34:48.276Z,11.33
2023-05-05T02:37:36.137Z,11.63
2023-05-05T02:40:26.415Z,11.48
2023-05-05T02:43:18.206Z,11.46
2023-05-05T02:46:02.486Z,11.55
2023-05-05T02:48:47.551Z,11.54
2023-05-05T02:51:32.746Z,11.42
2023-05-05T02:54:21.400Z,11.66
2023-05-05T02:57:05.010Z,11.64
2023-05-05T03:00:16.472Z,11.48
2023-05-05T03:03:18.577Z,11.51
2023-05-05T03:06:27.435Z,11.45
2023-05-05T03:09:32.543Z,10.95
2023-05-05T03:12:22.560Z,11.10
2023-05-05T03:15:22.881Z,11.09
2023-05-05T03:18:10.993Z,11.04
2023-05-05T03:20:57.368Z,11.03
2023-05-05T03:23:41.073Z,10.97
2023-05-05T03:26:32.249Z,10.73
2023-05-05T03:29:16.864Z,10.71
2023-05-05T03:32:01.767Z,10.79
2023-05-05T03:34:46.532Z,10.84
2023-05-05T03:37:30.193Z,10.71
2023-05-05T03:40:14.541Z,10.80
2023-05-05T03:42:58.412Z,10.87
2023-05-05T03:45:42.645Z,10.85
2023-05-05T03:48:26.487Z,10.82
2023-05-05T03:51:10.228Z,10.48
2023-05-05T03:53:53.935Z,10.74
2023-05-05T03:56:37.662Z,10.90
2023-05-05T03:59:21.259Z,10.41
2023-05-05T04:02:04.872Z,10.32
2023-05-05T04:04:48.406Z,10.32
2023-05-05T04:07:31.927Z,10.40
2023-05-05T04:10:15.540Z,10.56
2023-05-05T04:12:59.338Z,10.43
2023-05-05T04:15:46.235Z,10.33
2023-05-05T04:18:31.415Z,10.32
2023-05-05T04:21:17.820Z,10.09
2023-05-05T04:24:01.638Z,10.32
2023-05-05T04:26:45.748Z,10.50
2023-05-05T04:29:29.403Z,10.55
2023-05-05T04:32:13.418Z,10.46
2023-05-05T04:34:56.959Z,10.57
2023-05-05T04:37:41.251Z,10.12
2023-05-05T04:40:26.404Z,10.58
2023-05-05T04:43:10.934Z,10.58
2023-05-05T04:45:55.875Z,10.28
2023-05-05T04:48:43.327Z,10.41
2023-05-05T04:51:27.820Z,10.49
2023-05-05T04:54:11.557Z,10.29
2023-05-05T04:56:55.824Z,10.41
2023-05-05T04:59:39.346Z,10.47
2023-05-05T05:02:22.943Z,10.48
2023-05-05T05:05:07.479Z,10.73
2023-05-05T05:07:51.189Z,10.80
2023-05-05T05:10:36.514Z,10.77
2023-05-05T05:13:20.354Z,10.76
2023-05-05T05:16:04.331Z,10.76
2023-05-05T05:18:47.964Z,10.79
2023-05-05T05:21:31.880Z,10.81
2023-05-05T05:24:16.452Z,10.87
2023-05-05T05:27:00.453Z,10.89
2023-05-05T05:29:44.335Z,11.12
2023-05-05T05:32:28.142Z,11.00
2023-05-05T05:35:12.246Z,11.19
2023-05-05T05:37:56.407Z,11.23
2023-05-05T05:40:40.980Z,11.43
2023-05-05T05:43:24.717Z,11.44
2023-05-05T05:46:09.456Z,11.41
2023-05-05T05:48:55.113Z,11.38
2023-05-05T05:51:38.802Z,11.37
2023-05-05T05:54:22.399Z,11.49
2023-05-05T05:57:07.037Z,11.74
2023-05-05T05:59:50.992Z,11.74
2023-05-05T06:02:34.801Z,11.86
2023-05-05T06:05:18.583Z,11.85
2023-05-05T06:08:03.407Z,11.88
2023-05-05T06:10:48.970Z,12.02
2023-05-05T06:13:35.602Z,12.23
2023-05-05T06:16:21.718Z,12.51
2023-05-05T06:19:09.633Z,12.40
2023-05-05T06:21:53.716Z,12.57
2023-05-05T06:24:37.248Z,12.84
2023-05-05T06:27:20.861Z,12.52
2023-05-05T06:30:04.906Z,12.54
2023-05-05T06:32:48.487Z,12.72
2023-05-05T06:35:32.211Z,12.79
2023-05-05T06:38:16.055Z,13.02
2023-05-05T06:40:59.694Z,12.94
2023-05-05T06:43:44.420Z,13.37
2023-05-05T06:46:30.488Z,13.54
2023-05-05T06:49:14.145Z,13.63
2023-05-05T06:51:57.648Z,13.32
2023-05-05T06:54:41.434Z,13.48
2023-05-05T06:57:25.780Z,13.61
2023-05-05T07:00:11.545Z,13.80
2023-05-05T07:02:55.303Z,14.07
2023-05-05T07:05:38.862Z,14.24
2023-05-05T07:08:22.402Z,14.32
2023-05-05T07:11:06.121Z,14.44
2023-05-05T07:13:49.645Z,14.43
2023-05-05T07:16:34.882Z,13.79
2023-05-05T07:19:18.517Z,14.17
2023-05-05T07:22:02.085Z,14.21
2023-05-05T07:24:45.630Z,14.30
2023-05-05T07:27:29.373Z,14.38
2023-05-05T07:30:17.340Z,14.37
2023-05-05T07:33:01.972Z,14.64
2023-05-05T07:35:45.837Z,14.73
2023-05-05T07:38:29.435Z,14.50
2023-05-05T07:41:13.320Z,14.92
2023-05-05T07:43:56.813Z,14.50
2023-05-05T07:46:40.490Z,15.06
2023-05-05T07:49:24.092Z,14.97
2023-05-05T07:52:07.662Z,15.35
2023-05-05T07:54:51.182Z,15.55
2023-05-05T07:57:34.780Z,15.77
2023-05-05T08:00:19.663Z,15.57
2023-05-05T08:03:07.045Z,16.06
2023-05-05T08:05:55.669Z,15.64
2023-05-05T08:08:39.224Z,16.29
2023-05-05T08:11:22.834Z,16.42
2023-05-05T08:14:07.975Z,16.62
2023-05-05T08:16:51.547Z,16.95
2023-05-05T08:19:35.132Z,16.89
2023-05-05T08:22:18.862Z,17.30
2023-05-05T08:25:02.405Z,17.01
2023-05-05T08:27:46.757Z,17.15
2023-05-05T08:30:31.171Z,17.81
2023-05-05T08:33:14.736Z,18.16
2023-05-05T08:35:58.452Z,17.74
2023-05-05T08:38:42.305Z,18.21
2023-05-05T08:41:26.379Z,18.76
2023-05-05T08:44:11.742Z,19.01
2023-05-05T08:46:55.784Z,18.16
2023-05-05T08:49:46.696Z,18.89
2023-05-05T08:52:41.988Z,19.10
2023-05-05T08:55:29.466Z,19.69
2023-05-05T08:58:15.566Z,19.69
2023-05-05T09:01:01.634Z,19.96
2023-05-05T09:03:46.242Z,19.50
2023-05-05T09:06:32.433Z,19.71
2023-05-05T09:09:15.937Z,19.36
2023-05-05T09:11:59.853Z,20.42
2023-05-05T09:14:43.357Z,20.08
2023-05-05T09:17:27.455Z,19.68
2023-05-05T09:20:14.750Z,20.73
2023-05-05T09:22:58.437Z,21.00
2023-05-05T09:25:46.195Z,21.06
2023-05-05T09:28:29.774Z,21.28
2023-05-05T09:31:16.366Z,21.13
2023-05-05T09:34:01.286Z,21.15
2023-05-05T09:36:49.491Z,21.50
2023-05-05T09:39:33.064Z,21.84
2023-05-05T09:42:19.900Z,21.83
2023-05-05T09:45:05.373Z,21.49
2023-05-05T09:47:49.469Z,21.27
2023-05-05T09:50:45.842Z,21.42
2023-05-05T09:53:41.658Z,21.28
2023-05-05T09:56:42.928Z,21.82
2023-05-05T09:59:26.455Z,22.04
2023-05-05T10:02:12.966Z,22.20
2023-05-05T10:05:09.542Z,22.69
2023-05-05T10:07:53.224Z,22.99
2023-05-05T10:10:48.335Z,22.70
2023-05-05T10:13:41.113Z,23.59
2023-05-05T10:16:27.454Z,23.46
2023-05-05T10:19:15.225Z,23.52
2023-05-05T10:22:08.386Z,23.52
2023-05-05T10:25:03.570Z,23.32
2023-05-05T10:27:53.082Z,22.49
2023-05-05T10:30:44.306Z,23.26
2023-05-05T10:34:00.413Z,23.37
2023-05-05T10:36:45.235Z,23.05
2023-05-05T10:39:29.409Z,23.10
2023-05-05T10:42:15.913Z,23.75
2023-05-05T10:44:59.509Z,24.31
2023-05-05T10:47:44.668Z,23.55
2023-05-05T10:50:44.437Z,23.77
2023-05-05T10:53:55.864Z,24.18
2023-05-05T10:56:49.804Z,24.56
2023-05-05T10:59:46.754Z,24.39
2023-05-05T11:06:09.226Z,24.67
2023-05-05T11:08:55.992Z,23.40
2023-05-05T11:12:03.100Z,24.07
2023-05-05T11:14:46.616Z,24.53
2023-05-05T11:17:47.229Z,24.76
2023-05-05T11:20:43.730Z,25.13
2023-05-05T11:23:29.293Z,24.85
2023-05-05T11:26:14.850Z,24.08
2023-05-05T11:29:05.367Z,24.07
2023-05-05T11:32:13.109Z,24.53
2023-05-05T11:34:56.977Z,24.09
2023-05-05T11:40:46.640Z,23.90
2023-05-05T11:43:30.291Z,24.18
2023-05-05T11:46:17.649Z,23.64
2023-05-05T11:49:01.807Z,24.69
2023-05-05T11:52:16.264Z,24.39
2023-05-05T11:55:01.740Z,24.22
2023-05-05T11:57:45.333Z,24.18
2023-05-05T12:00:34.005Z,24.16
2023-05-05T12:03:17.731Z,24.63
2023-05-05T12:06:01.534Z,24.41
2023-05-05T12:08:45.119Z,23.73
2023-05-05T12:11:28.677Z,24.27
2023-05-05T12:14:12.303Z,24.30
2023-05-05T12:17:08.124Z,24.12
2023-05-05T12:19:54.516Z,24.13
2023-05-05T12:22:50.170Z,23.96
2023-05-05T12:25:44.087Z,24.60
2023-05-05T12:28:49.499Z,24.61
2023-05-05T12:31:39.876Z,24.93
2023-05-05T12:34:24.370Z,24.61
2023-05-05T12:37:08.021Z,24.19
2023-05-05T12:39:52.449Z,24.40
2023-05-05T12:42:40.145Z,24.16
2023-05-05T12:45:23.777Z,23.89
2023-05-05T12:48:22.976Z,24.38
2023-05-05T12:51:23.701Z,24.70
2023-05-05T12:54:10.182Z,24.61
2023-05-05T12:56:53.725Z,24.86
2023-05-05T12:59:37.249Z,24.81
2023-05-05T13:02:21.277Z,24.16
2023-05-05T13:05:05.631Z,24.60
2023-05-05T13:07:52.347Z,24.14
2023-05-05T13:10:36.361Z,24.07
2023-05-05T13:13:19.900Z,23.92
2023-05-05T13:16:03.639Z,24.61
2023-05-05T13:18:49.760Z,24.89
2023-05-05T13:21:33.505Z,25.04
2023-05-05T13:27:04.583Z,25.24
2023-05-05T13:29:48.213Z,25.29
2023-05-05T13:32:31.822Z,25.18
2023-05-05T13:35:16.601Z,24.82
2023-05-05T13:38:00.291Z,25.05
2023-05-05T13:40:43.808Z,24.97
2023-05-05T13:43:27.374Z,23.51
2023-05-05T13:49:00.467Z,24.89
2023-05-05T13:51:45.301Z,24.95
2023-05-05T13:54:28.828Z,24.21
2023-05-05T13:57:12.514Z,24.15
2023-05-05T13:59:56.086Z,24.74
2023-05-05T14:02:39.624Z,24.87
2023-05-05T14:05:25.839Z,24.18
2023-05-05T14:08:10.291Z,24.66
2023-05-05T14:10:53.791Z,24.59
2023-05-05T14:13:37.337Z,23.57
2023-05-05T14:16:20.985Z,23.91
2023-05-05T14:19:04.626Z,24.68
2023-05-05T14:21:48.182Z,23.67
2023-05-05T14:24:31.731Z,22.12
2023-05-05T14:27:15.498Z,23.83
2023-05-05T14:29:59.023Z,24.45
2023-05-05T14:32:43.145Z,24.05
2023-05-05T14:35:26.729Z,24.09
2023-05-05T14:38:10.388Z,24.26
2023-05-05T14:40:54.096Z,23.43
2023-05-05T14:43:37.601Z,24.28
2023-05-05T14:46:21.422Z,23.73
2023-05-05T14:49:04.944Z,23.61
2023-05-05T14:51:49.056Z,23.72
2023-05-05T14:54:38.719Z,23.35
2023-05-05T14:57:24.550Z,23.44
2023-05-05T15:00:09.534Z,23.64
2023-05-05T15:02:53.114Z,23.64
2023-05-05T15:05:37.364Z,22.84
2023-05-05T15:08:21.215Z,22.68
2023-05-05T15:11:06.229Z,23.15
2023-05-05T15:13:49.793Z,23.04
2023-05-05T15:16:35.226Z,23.35
2023-05-05T15:19:19.089Z,23.29
2023-05-05T15:22:02.660Z,23.38
2023-05-05T15:24:46.465Z,23.20
2023-05-05T15:27:31.754Z,23.25
2023-05-05T15:30:15.968Z,23.35
2023-05-05T15:32:59.643Z,23.25
2023-05-05T15:35:43.302Z,23.06
2023-05-05T15:38:29.211Z,23.19
2023-05-05T15:41:12.771Z,23.01
2023-05-05T15:43:56.354Z,22.77
2023-05-05T15:46:41.092Z,22.65
2023-05-05T15:49:27.079Z,22.75
2023-05-05T15:52:10.721Z,22.73
2023-05-05T15:54:54.315Z,21.84
2023-05-05T15:57:39.930Z,21.93
2023-05-05T16:00:23.748Z,22.23
2023-05-05T16:03:08.949Z,22.11
2023-05-05T16:05:52.817Z,21.88
2023-05-05T16:08:36.453Z,21.71
2023-05-05T16:11:23.652Z,21.94
2023-05-05T16:14:07.368Z,21.81
2023-05-05T16:16:50.964Z,21.61
2023-05-05T16:19:34.993Z,21.37
2023-05-05T16:22:18.743Z,21.49
2023-05-05T16:25:06.645Z,20.97
2023-05-05T16:27:50.672Z,21.37
2023-05-05T16:30:34.532Z,20.54
2023-05-05T16:33:18.180Z,20.85
2023-05-05T16:36:01.658Z,20.93
2023-05-05T16:38:45.367Z,20.86
2023-05-05T16:41:29.162Z,20.64
2023-05-05T16:44:12.969Z,20.83
2023-05-05T16:46:56.553Z,20.91
2023-05-05T16:49:40.075Z,20.53
2023-05-05T16:52:23.633Z,20.28
2023-05-05T16:55:07.843Z,20.43
2023-05-05T16:57:51.728Z,20.50
2023-05-05T17:00:35.557Z,20.42
2023-05-05T17:03:20.548Z,19.99
2023-05-05T17:06:04.316Z,19.91
2023-05-05T17:08:47.845Z,20.00
2023-05-05T17:11:31.860Z,19.93
2023-05-05T17:14:15.448Z,19.80
2023-05-05T17:16:59.056Z,19.67
2023-05-05T17:19:42.871Z,19.65
2023-05-05T17:22:26.466Z,19.71
2023-05-05T17:25:10.880Z,19.51
2023-05-05T17:27:55.720Z,19.49
2023-05-05T17:30:39.315Z,19.43
2023-05-05T17:33:22.902Z,19.13
2023-05-05T17:36:07.053Z,19.33
2023-05-05T17:38:50.577Z,19.18
2023-05-05T17:41:34.162Z,19.28
2023-05-05T17:44:17.733Z,19.18
2023-05-05T17:47:02.966Z,19.40
2023-05-05T17:49:46.527Z,19.27
2023-05-05T17:52:30.124Z,18.96
2023-05-05T17:55:13.862Z,18.83
2023-05-05T17:57:59.119Z,19.02
2023-05-05T18:00:42.660Z,18.80
2023-05-05T18:03:26.458Z,18.88
2023-05-05T18:06:10.087Z,18.54
2023-05-05T18:08:53.643Z,18.56
2023-05-05T18:11:37.622Z,18.38
2023-05-05T18:14:22.563Z,18.33
2023-05-05T18:17:06.258Z,18.27
2023-05-05T18:19:49.772Z,18.29
2023-05-05T18:22:34.296Z,18.21
2023-05-05T18:25:19.123Z,18.50
2023-05-05T18:28:02.972Z,18.27
2023-05-05T18:30:46.591Z,18.20
2023-05-05T18:33:30.126Z,17.97
2023-05-05T18:36:13.668Z,17.97
2023-05-05T18:38:57.331Z,17.76
2023-05-05T18:41:41.184Z,17.57
2023-05-05T18:44:26.676Z,17.48
2023-05-05T18:47:11.263Z,17.42
2023-05-05T18:49:54.947Z,17.47
2023-05-05T18:52:38.520Z,17.37
2023-05-05T18:55:22.175Z,17.50
2023-05-05T18:58:05.821Z,17.59
2023-05-05T19:00:49.446Z,17.43
2023-05-05T19:03:34.818Z,17.22
2023-05-05T19:06:18.831Z,17.28
2023-05-05T19:09:02.634Z,17.15
2023-05-05T19:11:46.225Z,16.73
2023-05-05T19:14:29.939Z,16.93
2023-05-05T19:17:13.553Z,16.84
2023-05-05T19:19:57.222Z,16.82
2023-05-05T19:22:40.986Z,16.94
2023-05-05T19:25:24.549Z,16.83
2023-05-05T19:28:08.321Z,16.63
2023-05-05T19:30:52.433Z,16.66
2023-05-05T19:33:36.652Z,16.61
2023-05-05T19:36:20.202Z,16.51
2023-05-05T19:39:05.027Z,16.67
2023-05-05T19:41:48.619Z,16.61
2023-05-05T19:44:32.224Z,16.53
2023-05-05T19:47:15.896Z,16.37
2023-05-05T19:49:59.398Z,16.26
2023-05-05T19:52:42.988Z,16.30
2023-05-05T19:55:26.973Z,16.38
2023-05-05T19:58:10.551Z,16.35
2023-05-05T20:00:54.104Z,16.27
2023-05-05T20:03:37.805Z,16.37
2023-05-05T20:06:22.894Z,16.07
2023-05-05T20:09:06.597Z,15.89
2023-05-05T20:11:50.176Z,15.80
2023-05-05T20:14:33.719Z,15.75
2023-05-05T20:17:20.292Z,15.76
2023-05-05T20:20:04.173Z,15.66
2023-05-05T20:22:49.768Z,15.72
2023-05-05T20:25:33.371Z,15.63
2023-05-05T20:28:16.933Z,15.60
2023-05-05T20:31:03.724Z,15.60
2023-05-05T20:33:47.504Z,15.52
2023-05-05T20:36:31.459Z,15.55
2023-05-05T20:39:16.089Z,15.51
2023-05-05T20:41:59.618Z,15.33
2023-05-05T20:44:43.237Z,15.32
2023-05-05T20:47:27.096Z,15.32
2023-05-05T20:50:11.735Z,15.45
2023-05-05T20:52:55.707Z,15.39
2023-05-05T20:55:39.707Z,15.27
2023-05-05T20:58:23.260Z,15.35
2023-05-05T21:01:06.866Z,15.12
2023-05-05T21:03:50.610Z,15.08
2023-05-05T21:06:34.138Z,15.03
2023-05-05T21:09:17.697Z,15.14
2023-05-05T21:12:02.497Z,15.25
2023-05-05T21:14:46.140Z,15.09
2023-05-05T21:17:30.225Z,14.98
2023-05-05T21:20:14.148Z,14.98
2023-05-05T21:22:57.676Z,15.00
2023-05-05T21:25:41.361Z,15.09
2023-05-05T21:28:24.886Z,14.98
2023-05-05T21:33:54.903Z,15.21
2023-05-05T21:36:38.796Z,14.96
2023-05-05T21:39:22.439Z,14.69
2023-05-05T21:42:08.402Z,14.64
2023-05-05T21:44:51.976Z,14.89
2023-05-05T21:47:35.635Z,14.55
2023-05-05T21:50:20.017Z,14.80
2023-05-05T21:53:03.613Z,14.77
2023-05-05T21:55:48.073Z,14.58
2023-05-05T21:58:31.576Z,14.42
2023-05-05T22:01:15.125Z,14.46
2023-05-05T22:03:59.014Z,14.43
2023-05-05T22:06:42.761Z,14.41
2023-05-05T22:09:26.342Z,14.37
2023-05-05T22:12:09.958Z,14.25
2023-05-05T22:14:53.493Z,14.24
2023-05-05T22:17:37.073Z,14.29
2023-05-05T22:20:20.637Z,14.22
2023-05-05T22:23:04.336Z,14.28
2023-05-05T22:25:47.862Z,14.42
2023-05-05T22:28:31.430Z,14.39
2023-05-05T22:31:15.065Z,14.10
2023-05-05T22:33:58.663Z,14.34
2023-05-05T22:36:42.363Z,14.20
2023-05-05T22:39:25.879Z,14.02
2023-05-05T22:42:09.699Z,13.81
2023-05-05T22:44:53.497Z,13.63
2023-05-05T22:47:37.323Z,13.98
2023-05-05T22:50:20.952Z,13.97
2023-05-05T22:53:04.623Z,14.26
2023-05-05T22:55:48.256Z,13.96
2023-05-05T22:58:31.835Z,13.90
2023-05-05T23:01:15.418Z,13.86
2023-05-05T23:03:59.101Z,14.01
2023-05-05T23:06:42.692Z,13.88
2023-05-05T23:09:26.355Z,13.82
2023-05-05T23:12:09.919Z,13.51
2023-05-05T23:14:53.462Z,13.73
2023-05-05T23:17:37.041Z,13.73
2023-05-05T23:20:20.836Z,13.17
2023-05-05T23:23:04.850Z,13.25
2023-05-05T23:25:48.467Z,13.12
2023-05-05T23:28:31.953Z,13.37
2023-05-05T23:31:15.589Z,13.20
2023-05-05T23:33:59.225Z,13.27
2023-05-05T23:36:43.795Z,13.15
2023-05-05T23:39:27.448Z,13.06
2023-05-05T23:42:11.026Z,12.87
2023-05-05T23:44:54.581Z,12.47
2023-05-05T23:47:38.136Z,12.57
2023-05-05T23:50:22.274Z,12.56
2023-05-05T23:53:05.875Z,12.76
2023-05-05T23:55:49.402Z,12.53
2023-05-05T23:58:32.925Z,13.00
